Time;durP1;ratioP1;P1;durP2;ratioP2;P2;SDS_P1;SDS_P2;PMS_P1;PMS_P2;Temp;Humidity;BMP_temperature;BMP_pressure;BME280_temperature;BME280_humidity;BME280_pressure;Samples;Min_cycle;Max_cycle;Signal;HPM_P1;HPM_P2
2021/04/28 00:01:46;;;;;;;14.50;7.75;;;;;;;11.36;75.33;93318.53;4949592;28;20565;-80
2021/04/28 00:04:12;;;;;;;14.40;8.82;;;;;;;11.27;74.82;93309.78;4947767;28;20213;-80
2021/04/28 00:06:38;;;;;;;12.38;8.07;;;;;;;11.19;75.02;93297.31;4952412;28;20055;-80
2021/04/28 00:09:08;;;;;;;18.58;9.07;;;;;;;11.11;74.96;93298.03;4957307;28;20882;-80
2021/04/28 00:11:35;;;;;;;16.88;8.40;;;;;;;11.19;75.44;93307.88;4953134;28;20054;-80
2021/04/28 00:14:03;;;;;;;11.98;8.23;;;;;;;11.13;75.20;93320.44;4929631;28;20300;-80
2021/04/28 00:16:34;;;;;;;13.70;6.82;;;;;;;11.02;74.26;93321.00;4943078;28;20031;-80
2021/04/28 00:19:00;;;;;;;8.40;7.03;;;;;;;11.05;74.24;93317.72;4952286;28;20567;-80
2021/04/28 00:21:27;;;;;;;11.43;7.15;;;;;;;11.06;74.86;93319.31;4952561;28;20157;-79
2021/04/28 00:23:53;;;;;;;7.88;5.95;;;;;;;11.02;72.82;93321.00;4928732;28;20030;-80
2021/04/28 00:26:19;;;;;;;10.65;6.38;;;;;;;11.01;73.85;93325.50;4951642;28;20043;-80
2021/04/28 00:28:44;;;;;;;10.60;6.63;;;;;;;11.00;74.26;93320.50;4952056;28;20569;-80
2021/04/28 00:31:10;;;;;;;10.38;6.45;;;;;;;10.96;74.56;93316.91;4955967;28;20039;-79
2021/04/28 00:33:36;;;;;;;7.35;6.35;;;;;;;10.87;75.02;93319.50;4944697;28;20615;-80
2021/04/28 00:36:02;;;;;;;17.50;8.45;;;;;;;10.86;75.26;93331.16;4940567;28;20024;-80
2021/04/28 00:38:27;;;;;;;9.45;7.00;;;;;;;10.83;75.01;93321.97;4950142;28;20151;-80
2021/04/28 00:40:53;;;;;;;10.77;7.72;;;;;;;10.82;75.64;93325.69;4952383;28;20560;-80
2021/04/28 00:43:19;;;;;;;15.43;7.63;;;;;;;10.81;75.66;93329.41;4949786;28;20417;-81
2021/04/28 00:45:45;;;;;;;10.32;7.55;;;;;;;10.80;75.47;93317.28;4943271;28;20074;-80
2021/04/28 00:48:13;;;;;;;16.30;8.05;;;;;;;10.85;75.72;93319.78;4953051;28;20735;-80
2021/04/28 00:50:46;;;;;;;14.57;7.05;;;;;;;10.83;75.64;93324.63;4941118;28;20027;-80
2021/04/28 00:53:18;;;;;;;13.40;6.95;;;;;;;10.88;74.89;93326.34;4939288;28;20557;-80
2021/04/28 00:55:44;;;;;;;11.25;6.68;;;;;;;10.86;75.45;93326.66;4953874;28;20404;-80
2021/04/28 00:58:13;;;;;;;13.10;6.57;;;;;;;10.86;74.98;93326.66;4952101;28;20043;-80
2021/04/28 01:00:43;;;;;;;7.55;5.47;;;;;;;10.86;74.64;93326.66;4951913;28;20126;-80
2021/04/28 01:03:09;;;;;;;12.05;5.82;;;;;;;10.89;74.74;93324.50;4929421;28;20481;-79
2021/04/28 01:05:34;;;;;;;14.40;5.88;;;;;;;10.94;75.00;93321.72;4952954;28;20065;-79
2021/04/28 01:08:03;;;;;;;10.77;6.10;;;;;;;10.93;74.91;93309.59;4942551;28;20910;-80
2021/04/28 01:10:30;;;;;;;16.17;6.10;;;;;;;11.07;74.21;93315.59;4933164;28;20043;-80
2021/04/28 01:12:59;;;;;;;10.50;5.90;;;;;;;11.07;73.64;93305.00;4941493;28;20497;-79
2021/04/28 01:15:33;;;;;;;13.13;6.32;;;;;;;11.09;73.61;93308.13;4933796;28;20373;-79
2021/04/28 01:18:02;;;;;;;9.93;6.53;;;;;;;11.14;74.19;93313.31;4936300;28;20029;-80
2021/04/28 01:20:36;;;;;;;9.18;6.32;;;;;;;11.16;74.49;93309.25;4931659;28;20039;-80
2021/04/28 01:23:02;;;;;;;19.33;9.75;;;;;;;11.17;74.72;93305.53;4933846;28;20106;-80
2021/04/28 01:25:31;;;;;;;15.10;8.80;;;;;;;11.20;75.08;93312.06;4934040;28;20045;-80
2021/04/28 01:28:09;;;;;;;13.27;9.88;;;;;;;11.35;74.99;93309.03;4951873;28;20106;-80
2021/04/28 01:30:44;;;;;;;13.70;8.77;;;;;;;11.47;74.86;93298.66;4941489;28;20385;-80
2021/04/28 01:33:15;;;;;;;11.90;8.20;;;;;;;11.63;74.35;93302.44;4925532;28;20039;-80
2021/04/28 01:35:46;;;;;;;20.20;9.25;;;;;;;11.56;74.30;93294.19;4937306;28;20034;-80
2021/04/28 01:38:13;;;;;;;13.48;7.80;;;;;;;11.58;73.85;93297.28;4953091;28;20683;-80
2021/04/28 01:40:45;;;;;;;18.83;7.15;;;;;;;11.57;73.67;93293.09;4952310;28;20144;-81
2021/04/28 01:43:11;;;;;;;11.30;6.60;;;;;;;11.51;73.72;93291.69;4950941;28;20114;-80
2021/04/28 01:45:37;;;;;;;17.13;7.82;;;;;;;11.50;73.74;93295.41;4922521;28;20044;-80
2021/04/28 01:48:09;;;;;;;10.75;6.25;;;;;;;11.52;73.79;93293.25;4929294;28;20090;-80
2021/04/28 01:50:42;;;;;;;11.95;6.68;;;;;;;11.48;74.01;93289.66;4942234;28;20042;-80
2021/04/28 01:53:07;;;;;;;9.90;6.70;;;;;;;11.40;74.24;93290.38;4954101;28;20039;-80
2021/04/28 01:55:33;;;;;;;13.77;7.10;;;;;;;11.43;74.27;93302.22;4953904;28;20436;-80
2021/04/28 01:58:02;;;;;;;10.50;7.45;;;;;;;11.50;74.46;93302.56;4933835;28;20178;-80
2021/04/28 02:00:28;;;;;;;12.70;7.07;;;;;;;11.52;73.59;93289.81;4927933;28;20149;-80
2021/04/28 02:02:53;;;;;;;13.82;7.00;;;;;;;11.51;73.71;93298.84;4951650;28;20035;-80
2021/04/28 02:05:21;;;;;;;12.93;7.10;;;;;;;11.66;73.50;93301.06;4950115;28;20113;-80
2021/04/28 02:07:47;;;;;;;13.50;7.97;;;;;;;11.71;72.58;93299.06;4941387;28;20046;-80
2021/04/28 02:10:16;;;;;;;16.08;7.50;;;;;;;11.72;72.94;93305.16;4952476;28;20128;-81
2021/04/28 02:12:42;;;;;;;13.35;7.18;;;;;;;11.73;73.33;93312.00;4948718;28;20045;-80
2021/04/28 02:15:13;;;;;;;10.75;7.10;;;;;;;11.84;72.32;93308.00;4949854;28;20903;-81
2021/04/28 02:17:40;;;;;;;13.70;6.43;;;;;;;11.63;73.08;93293.75;4937025;28;20442;-80
2021/04/28 02:20:09;;;;;;;10.32;7.00;;;;;;;11.58;72.96;93297.28;4942673;28;20043;-81
2021/04/28 02:22:37;;;;;;;11.52;7.05;;;;;;;11.48;73.52;93299.47;4950134;28;20051;-80
2021/04/28 02:25:03;;;;;;;9.07;6.47;;;;;;;11.54;73.60;93299.00;4932338;28;20043;-80
2021/04/28 02:27:28;;;;;;;13.68;7.20;;;;;;;11.64;72.56;93313.81;4941659;28;20375;-80
2021/04/28 02:29:57;;;;;;;9.35;6.60;;;;;;;11.53;72.24;93305.38;4940105;28;20031;-81
2021/04/28 02:32:26;;;;;;;11.25;7.97;;;;;;;11.52;72.06;93309.13;4950326;28;20254;-80
2021/04/28 02:34:53;;;;;;;12.98;7.25;;;;;;;11.48;72.90;93310.81;4943613;28;20035;-80
2021/04/28 02:37:25;;;;;;;10.52;7.20;;;;;;;11.42;73.16;93312.03;4925275;28;20046;-80
2021/04/28 02:39:54;;;;;;;10.45;6.78;;;;;;;11.26;73.58;93302.91;4948833;28;20043;-80
2021/04/28 02:42:22;;;;;;;8.85;6.55;;;;;;;11.08;73.85;93301.28;4951168;28;20073;-80
2021/04/28 02:44:52;;;;;;;10.20;7.40;;;;;;;11.00;75.11;93307.28;4951026;28;20037;-80
2021/04/28 02:47:20;;;;;;;9.73;6.43;;;;;;;10.86;75.14;93310.78;4951720;28;20046;-80
2021/04/28 02:49:47;;;;;;;12.20;7.50;;;;;;;10.85;75.32;93308.44;4949137;28;20043;-80
2021/04/28 02:52:13;;;;;;;14.55;7.22;;;;;;;10.79;75.46;93304.38;4951530;28;20153;-80
2021/04/28 02:54:39;;;;;;;10.93;7.18;;;;;;;10.72;75.95;93315.34;4944049;28;20501;-79
2021/04/28 02:57:06;;;;;;;12.15;6.70;;;;;;;10.67;75.87;93315.47;4950807;28;20142;-80
2021/04/28 02:59:31;;;;;;;9.38;7.20;;;;;;;10.55;76.00;93311.81;4949214;28;20046;-80
2021/04/28 03:01:57;;;;;;;10.20;6.65;;;;;;;10.59;76.19;93326.78;4949625;28;20521;-80
2021/04/28 03:04:25;;;;;;;10.45;6.75;;;;;;;10.54;76.55;93334.03;4947482;28;20051;-80
2021/04/28 03:06:51;;;;;;;10.07;7.78;;;;;;;10.42;76.90;93331.91;4948860;28;20535;-80
2021/04/28 03:09:19;;;;;;;11.82;6.85;;;;;;;10.40;77.14;93339.38;4930575;28;20038;-80
2021/04/28 03:11:47;;;;;;;12.02;7.13;;;;;;;10.25;77.70;93327.28;4952808;28;20462;-80
2021/04/28 03:14:15;;;;;;;16.15;9.70;;;;;;;10.26;78.16;93326.16;4949418;28;20053;-80
2021/04/28 03:16:42;;;;;;;13.18;9.45;;;;;;;10.50;77.99;93333.84;4950438;28;20501;-80
2021/04/28 03:19:11;;;;;;;12.30;9.23;;;;;;;10.64;78.08;93345.16;4951593;28;20729;-80
2021/04/28 03:21:46;;;;;;;16.23;9.15;;;;;;;10.55;77.52;93336.38;4932683;28;20052;-80
2021/04/28 03:24:12;;;;;;;10.55;8.75;;;;;;;10.62;77.62;93347.31;4937309;28;20054;-80
2021/04/28 03:26:38;;;;;;;13.52;8.73;;;;;;;10.65;77.51;93353.88;4951714;28;20166;-79
2021/04/28 03:29:07;;;;;;;19.17;9.88;;;;;;;10.64;77.77;93342.50;4939601;28;20042;-80
2021/04/28 03:31:42;;;;;;;13.32;9.55;;;;;;;10.50;78.09;93333.84;4945709;28;20177;-80
2021/04/28 03:34:39;;;;;;;11.60;8.57;;;;;;;10.65;77.91;93357.25;4895047;28;20039;-80
2021/04/28 03:37:08;;;;;;;11.57;8.75;;;;;;;10.41;78.32;93330.34;4880900;28;20441;-80
2021/04/28 03:39:51;;;;;;;11.07;8.82;;;;;;;10.38;77.79;93309.81;4875209;29;20074;-80
2021/04/28 03:42:17;;;;;;;14.30;9.38;;;;;;;10.72;77.39;93355.00;4913120;28;20025;-80
2021/04/28 03:44:43;;;;;;;18.38;12.57;;;;;;;10.82;77.66;93362.69;4956318;28;20020;-80
2021/04/28 03:47:31;;;;;;;17.25;9.90;;;;;;;10.86;76.30;93331.94;4886767;28;20067;-80
2021/04/28 03:49:57;;;;;;;16.05;9.68;;;;;;;10.96;75.16;93328.25;4922974;28;20046;-80
2021/04/28 03:52:26;;;;;;;15.50;9.32;;;;;;;11.21;75.24;93348.81;4950011;28;20038;-80
2021/04/28 03:54:52;;;;;;;15.20;10.43;;;;;;;11.49;74.33;93375.06;4954339;28;20116;-80
2021/04/28 03:57:17;;;;;;;13.77;9.52;;;;;;;11.73;72.72;93376.31;4912428;28;20035;-80
2021/04/28 03:59:43;;;;;;;18.80;8.65;;;;;;;11.85;72.25;93370.44;4944415;28;20090;-80
2021/04/28 04:02:11;;;;;;;13.13;8.80;;;;;;;12.02;70.81;93377.69;4952985;28;20753;-80
2021/04/28 04:04:43;;;;;;;12.98;9.43;;;;;;;12.16;69.87;93375.69;4956131;28;20082;-80
2021/04/28 04:07:08;;;;;;;17.83;10.77;;;;;;;12.12;67.44;93378.16;4954795;28;20039;-79
2021/04/28 04:09:39;;;;;;;29.25;11.45;;;;;;;12.21;67.17;93370.25;4952906;28;20039;-80
2021/04/28 04:12:05;;;;;;;12.68;10.23;;;;;;;12.68;64.39;93367.81;4953166;28;20027;-80
2021/04/28 04:14:30;;;;;;;13.50;10.05;;;;;;;13.03;64.39;93369.38;4953458;28;20128;-80
2021/04/28 04:16:56;;;;;;;14.00;8.55;;;;;;;13.76;59.95;93373.63;4937974;28;20516;-80
2021/04/28 04:19:21;;;;;;;12.50;8.43;;;;;;;13.89;56.78;93380.59;4952081;28;20069;-79
2021/04/28 04:21:49;;;;;;;14.07;9.63;;;;;;;14.18;56.32;93384.38;4955016;28;20042;-80
2021/04/28 04:24:17;;;;;;;11.82;7.97;;;;;;;14.46;55.71;93371.44;4952490;28;20106;-80
2021/04/28 04:26:43;;;;;;;13.88;9.60;;;;;;;14.90;53.79;93384.13;4959056;28;20022;-80
2021/04/28 04:29:11;;;;;;;12.32;8.02;;;;;;;15.33;52.59;93385.63;4954489;28;20771;-80
2021/04/28 04:31:37;;;;;;;14.73;7.82;;;;;;;15.93;51.78;93383.13;4955237;28;20043;-80
2021/04/28 04:34:02;;;;;;;12.45;8.15;;;;;;;16.40;48.96;93388.06;4941861;28;20121;-80
2021/04/28 04:36:31;;;;;;;19.77;9.57;;;;;;;16.62;50.40;93387.63;4951361;28;20038;-80
2021/04/28 04:39:02;;;;;;;19.75;9.27;;;;;;;16.88;51.16;93388.03;4956279;28;20033;-81
2021/04/28 04:41:28;;;;;;;19.92;9.55;;;;;;;17.52;49.35;93371.13;4939499;28;20042;-81
2021/04/28 04:43:53;;;;;;;14.52;9.63;;;;;;;17.99;48.81;93386.47;4885548;28;20051;-81
2021/04/28 04:46:22;;;;;;;20.80;8.77;;;;;;;18.04;48.69;93383.53;4935356;28;20042;-81
2021/04/28 04:48:47;;;;;;;17.40;9.20;;;;;;;17.93;48.56;93395.88;4953087;28;20039;-81
2021/04/28 04:51:13;;;;;;;16.02;9.35;;;;;;;17.96;48.44;93381.81;4951755;28;20038;-80
2021/04/28 04:53:38;;;;;;;13.57;9.25;;;;;;;18.05;48.04;93401.91;4955853;28;20371;-81
2021/04/28 04:56:04;;;;;;;15.52;9.98;;;;;;;17.80;48.40;93402.41;4951558;28;20469;-81
2021/04/28 04:58:32;;;;;;;14.07;8.80;;;;;;;17.53;49.54;93420.00;4955362;28;20142;-81
2021/04/28 05:01:01;;;;;;;14.98;8.63;;;;;;;17.51;49.08;93419.53;4934687;28;20040;-80
2021/04/28 05:03:26;;;;;;;20.27;8.65;;;;;;;16.88;47.70;93382.69;4942821;28;20048;-81
2021/04/28 05:05:57;;;;;;;15.00;7.85;;;;;;;17.21;46.55;93384.38;4950653;28;20572;-80
2021/04/28 05:08:23;;;;;;;23.20;8.05;;;;;;;17.22;46.24;93375.25;4938508;28;20031;-80
2021/04/28 05:10:48;;;;;;;15.77;8.63;;;;;;;17.37;46.76;93393.22;4939077;28;20504;-80
2021/04/28 05:13:14;;;;;;;10.48;7.45;;;;;;;17.64;44.10;93384.44;4951020;28;20054;-80
2021/04/28 05:15:39;;;;;;;13.63;7.57;;;;;;;17.94;44.37;93389.38;4951372;28;20424;-81
2021/04/28 05:18:05;;;;;;;10.75;7.85;;;;;;;18.43;43.52;93389.81;4955850;28;20029;-81
2021/04/28 05:20:31;;;;;;;17.90;8.30;;;;;;;18.98;41.87;93378.09;4950534;28;20058;-81
2021/04/28 05:22:56;;;;;;;12.70;7.13;;;;;;;19.66;40.04;93388.28;4939937;28;20044;-80
2021/04/28 05:25:23;;;;;;;14.32;7.57;;;;;;;19.97;39.76;93406.88;4951316;28;20394;-80
2021/04/28 05:27:49;;;;;;;13.30;7.10;;;;;;;20.41;38.77;93409.16;4944778;28;20698;-81
2021/04/28 05:30:17;;;;;;;12.82;6.68;;;;;;;20.88;37.45;93420.25;4943063;28;20023;-81
2021/04/28 05:32:43;;;;;;;20.77;7.55;;;;;;;21.27;36.42;93411.97;4948733;28;20484;-81
2021/04/28 05:35:11;;;;;;;10.80;7.10;;;;;;;21.72;36.25;93411.00;4928454;28;20057;-80
2021/04/28 05:37:36;;;;;;;12.43;5.80;;;;;;;22.47;34.40;93399.88;4951426;28;20501;-81
2021/04/28 05:40:07;;;;;;;11.48;6.22;;;;;;;23.16;33.83;93394.59;4950679;28;20082;-81
2021/04/28 05:42:33;;;;;;;13.05;6.40;;;;;;;23.40;34.12;93379.69;4936373;28;20429;-81
2021/04/28 05:44:59;;;;;;;16.50;5.75;;;;;;;24.18;30.08;93369.97;4955722;28;20026;-81
2021/04/28 05:47:24;;;;;;;11.13;5.22;;;;;;;23.46;31.60;93356.63;4950592;28;20051;-81
2021/04/28 05:49:51;;;;;;;7.93;5.75;;;;;;;23.85;31.18;93332.47;4928607;28;20535;-81
2021/04/28 05:52:16;;;;;;;10.00;5.50;;;;;;;23.35;31.04;93353.09;4950095;28;20053;-79
2021/04/28 05:54:42;;;;;;;12.45;5.20;;;;;;;23.24;31.81;93348.44;4938350;28;20055;-80
2021/04/28 05:57:09;;;;;;;6.63;5.13;;;;;;;23.19;32.03;93343.41;4951766;28;20015;-80
2021/04/28 05:59:35;;;;;;;8.43;4.68;;;;;;;23.57;31.25;93352.81;4955312;28;20421;-80
2021/04/28 06:02:00;;;;;;;6.50;5.00;;;;;;;23.68;31.13;93364.41;4941828;28;20046;-80
2021/04/28 06:04:28;;;;;;;8.82;4.53;;;;;;;23.57;31.59;93362.84;4953010;28;20066;-80
2021/04/28 06:06:54;;;;;;;12.88;5.45;;;;;;;24.14;29.97;93366.47;4947802;28;20057;-80
2021/04/28 06:09:19;;;;;;;7.90;4.60;;;;;;;24.06;29.39;93354.88;4952853;28;20030;-80
2021/04/28 06:11:45;;;;;;;6.95;5.25;;;;;;;22.81;31.52;93362.81;4953577;28;20026;-79
2021/04/28 06:14:11;;;;;;;8.80;5.38;;;;;;;22.87;31.97;93362.06;4929408;28;20747;-80
2021/04/28 06:16:36;;;;;;;10.30;5.72;;;;;;;23.41;30.93;93370.47;4951847;28;20051;-81
2021/04/28 06:19:02;;;;;;;9.48;5.35;;;;;;;23.55;30.37;93368.63;4942001;28;20046;-80
2021/04/28 06:21:28;;;;;;;12.70;5.18;;;;;;;23.59;30.27;93377.50;4948187;28;20103;-80
2021/04/28 06:23:53;;;;;;;13.35;6.28;;;;;;;24.08;30.43;93366.06;4950368;28;20058;-81
2021/04/28 06:26:19;;;;;;;11.85;6.57;;;;;;;25.24;30.15;93375.31;4940615;28;20868;-81
2021/04/28 06:28:45;;;;;;;15.38;6.97;;;;;;;25.42;29.92;93367.13;4952805;28;20047;-81
2021/04/28 06:31:11;;;;;;;9.23;6.30;;;;;;;25.94;28.05;93387.06;4953278;28;20473;-82
2021/04/28 06:33:36;;;;;;;8.90;6.90;;;;;;;25.74;27.77;93388.69;4950885;28;20039;-80
2021/04/28 06:36:02;;;;;;;8.40;6.50;;;;;;;25.69;28.64;93381.75;4938240;28;20142;-81
2021/04/28 06:38:28;;;;;;;7.72;5.53;;;;;;;26.36;26.82;93383.34;4950947;28;20080;-81
2021/04/28 06:40:53;;;;;;;6.03;5.45;;;;;;;26.99;26.78;93394.88;4950311;28;20047;-81
2021/04/28 06:43:18;;;;;;;9.70;6.18;;;;;;;26.92;26.75;93390.28;4949762;28;20053;-81
2021/04/28 06:45:44;;;;;;;14.82;6.20;;;;;;;27.43;26.21;93391.31;4945741;28;20082;-80
2021/04/28 06:48:10;;;;;;;8.98;6.40;;;;;;;27.00;27.21;93402.59;4947874;28;20042;-81
2021/04/28 06:50:35;;;;;;;17.52;6.65;;;;;;;28.27;25.17;93394.97;4953566;28;20019;-80
2021/04/28 06:53:01;;;;;;;9.98;5.72;;;;;;;28.40;24.89;93403.34;4950650;28;20073;-80
2021/04/28 06:55:27;;;;;;;10.30;5.35;;;;;;;28.58;25.42;93398.41;4950793;28;20445;-81
2021/04/28 06:57:56;;;;;;;12.20;5.50;;;;;;;29.23;24.43;93398.91;4949841;28;20806;-81
2021/04/28 07:00:26;;;;;;;10.65;5.80;;;;;;;29.65;23.66;93402.84;4948922;28;20034;-81
2021/04/28 07:02:53;;;;;;;12.90;6.80;;;;;;;30.12;23.15;93395.28;4950525;28;20547;-81
2021/04/28 07:05:23;;;;;;;10.50;6.10;;;;;;;30.48;22.51;93415.19;4950543;28;20073;-81
2021/04/28 07:07:48;;;;;;;9.25;5.13;;;;;;;30.27;22.65;93404.69;4940019;28;20608;-82
2021/04/28 07:10:17;;;;;;;13.75;5.80;;;;;;;30.07;23.37;93391.13;4927888;28;20130;-82
2021/04/28 07:12:45;;;;;;;13.10;5.47;;;;;;;30.67;22.03;93396.44;4950360;28;20035;-81
2021/04/28 07:15:12;;;;;;;9.88;5.07;;;;;;;30.87;22.09;93410.78;4949265;28;20073;-82
2021/04/28 07:17:38;;;;;;;11.55;5.22;;;;;;;30.48;22.01;93404.28;4952846;28;20019;-82
2021/04/28 07:20:06;;;;;;;10.13;5.13;;;;;;;30.85;21.88;93407.69;4923846;28;20893;-82
2021/04/28 07:22:31;;;;;;;9.02;5.50;;;;;;;30.89;21.68;93417.31;4948963;28;20097;-82
2021/04/28 07:24:57;;;;;;;11.57;4.85;;;;;;;31.52;21.59;93399.81;4933603;28;20042;-82
2021/04/28 07:27:22;;;;;;;7.82;4.53;;;;;;;31.24;21.02;93414.94;4938529;28;20034;-82
2021/04/28 07:29:50;;;;;;;6.75;5.00;;;;;;;30.66;21.92;93419.44;4938426;28;20082;-82
2021/04/28 07:32:19;;;;;;;9.85;5.50;;;;;;;30.65;21.72;93417.91;4936552;28;20039;-81
2021/04/28 07:34:45;;;;;;;7.03;5.30;;;;;;;30.38;22.23;93416.16;4933590;28;20042;-81
2021/04/28 07:37:11;;;;;;;7.95;4.68;;;;;;;30.20;22.49;93423.94;4936321;28;20070;-81
2021/04/28 07:39:38;;;;;;;6.63;4.53;;;;;;;30.35;22.34;93411.53;4936869;28;20703;-81
2021/04/28 07:42:05;;;;;;;7.13;5.32;;;;;;;31.49;21.24;93408.84;4933778;28;20035;-80
2021/04/28 07:44:31;;;;;;;8.57;5.47;;;;;;;31.87;21.51;93412.50;4935723;28;20055;-80
2021/04/28 07:47:00;;;;;;;8.45;5.75;;;;;;;32.06;20.79;93413.56;4931765;28;20050;-80
2021/04/28 07:49:26;;;;;;;9.75;5.40;;;;;;;31.93;20.71;93421.72;4931026;28;20523;-81
2021/04/28 07:51:52;;;;;;;7.40;4.97;;;;;;;31.94;21.08;93419.75;4943726;28;20400;-80
2021/04/28 07:54:18;;;;;;;7.47;4.57;;;;;;;32.35;20.73;93408.06;4947982;28;20033;-81
2021/04/28 07:56:46;;;;;;;5.97;4.97;;;;;;;32.18;20.79;93418.31;4949649;28;20253;-82
2021/04/28 07:59:13;;;;;;;6.70;5.30;;;;;;;32.30;20.89;93400.41;4935163;28;20043;-80
2021/04/28 08:01:39;;;;;;;13.50;5.50;;;;;;;30.50;22.16;93404.59;4946831;28;20046;-80
2021/04/28 08:04:05;;;;;;;10.45;5.70;;;;;;;30.96;21.64;93408.22;4936720;28;20047;-79
2021/04/28 08:06:30;;;;;;;8.75;5.43;;;;;;;31.74;21.24;93414.44;4942404;28;20509;-80
2021/04/28 08:08:56;;;;;;;9.18;5.43;;;;;;;32.23;20.65;93391.19;4945378;28;20154;-80
2021/04/28 08:11:22;;;;;;;5.93;5.25;;;;;;;30.88;21.87;93406.84;4948224;28;20054;-79
2021/04/28 08:13:47;;;;;;;5.45;4.47;;;;;;;31.57;21.29;93404.78;4949077;28;20043;-81
2021/04/28 08:16:16;;;;;;;11.60;5.75;;;;;;;30.90;21.93;93412.63;4948423;28;20031;-80
2021/04/28 08:18:41;;;;;;;9.85;5.20;;;;;;;31.36;22.12;93401.38;4949348;28;20047;-81
2021/04/28 08:21:07;;;;;;;11.75;5.30;;;;;;;30.75;22.42;93400.53;4933597;28;20517;-80
2021/04/28 08:23:34;;;;;;;11.23;5.57;;;;;;;31.42;21.98;93409.06;4952323;28;20042;-81
2021/04/28 08:26:02;;;;;;;6.90;5.35;;;;;;;31.92;20.81;93406.50;4952673;28;20700;-78
2021/04/28 08:28:29;;;;;;;5.90;5.05;;;;;;;32.32;20.92;93398.75;4951166;28;20575;-80
2021/04/28 08:30:54;;;;;;;7.03;5.13;;;;;;;32.46;21.22;93381.13;4943384;28;20053;-80
2021/04/28 08:33:20;;;;;;;7.13;5.25;;;;;;;32.47;21.14;93385.41;4952607;28;20030;-80
2021/04/28 08:35:46;;;;;;;8.70;4.72;;;;;;;32.48;20.72;93384.97;4956143;28;20059;-80
2021/04/28 08:38:17;;;;;;;13.13;5.70;;;;;;;32.72;20.67;93401.84;4953975;28;21067;-81
2021/04/28 08:40:43;;;;;;;10.65;6.22;;;;;;;32.68;20.83;93393.00;4926541;28;20520;-81
2021/04/28 08:43:08;;;;;;;11.18;5.32;;;;;;;33.13;20.49;93379.03;4934283;28;20071;-80
2021/04/28 08:45:33;;;;;;;10.85;5.53;;;;;;;33.42;20.31;93389.81;4952715;28;20535;-80
2021/04/28 08:47:59;;;;;;;8.10;5.25;;;;;;;34.46;19.39;93382.94;4942632;28;20028;-80
2021/04/28 08:50:27;;;;;;;9.55;5.32;;;;;;;34.57;18.96;93391.53;4953194;28;23260;-80
2021/04/28 08:52:54;;;;;;;10.68;5.40;;;;;;;33.54;20.29;93380.78;4928928;28;20110;-81
2021/04/28 08:55:20;;;;;;;12.77;6.15;;;;;;;33.36;20.21;93386.09;4951583;28;20520;-82
2021/04/28 08:57:46;;;;;;;10.77;5.05;;;;;;;33.10;20.29;93380.66;4953224;28;20085;-81
2021/04/28 09:00:12;;;;;;;5.72;4.93;;;;;;;33.39;20.23;93396.16;4943520;28;20033;-80
2021/04/28 09:02:57;;;;;;;6.57;5.22;;;;;;;32.69;20.80;93389.06;4953988;28;20023;-80
2021/04/28 09:05:23;;;;;;;10.68;5.38;;;;;;;32.75;20.89;93387.28;4951185;28;20043;-79
2021/04/28 09:07:51;;;;;;;6.75;5.07;;;;;;;32.84;20.71;93390.13;4953594;28;20059;-81
2021/04/28 09:10:20;;;;;;;11.15;5.32;;;;;;;31.93;21.51;93396.34;4941619;28;20054;-80
2021/04/28 09:12:57;;;;;;;6.82;5.60;;;;;;;31.32;22.37;93389.78;4952991;28;20114;-80
2021/04/28 09:15:42;;;;;;;5.72;5.00;;;;;;;31.07;22.34;93394.34;4951606;28;20118;-81
2021/04/28 09:18:11;;;;;;;;;;;;;;;31.21;22.37;93385.78;4951791;28;20026;-79
2021/04/28 09:20:45;;;;;;;5.72;4.95;;;;;;;31.82;22.22;93374.78;4953623;28;20587;-80
2021/04/28 09:23:19;;;;;;;8.65;5.70;;;;;;;30.99;22.40;93377.34;4952085;28;20050;-80
2021/04/28 09:25:49;;;;;;;9.35;5.53;;;;;;;29.46;24.14;93382.59;4952079;28;20065;-80
2021/04/28 09:28:31;;;;;;;12.77;6.35;;;;;;;29.88;24.22;93372.81;4953961;28;20085;-80
2021/04/28 09:31:06;;;;;;;8.88;5.85;;;;;;;29.55;24.85;93374.63;4947790;28;20043;-80
2021/04/28 09:33:54;;;;;;;7.78;4.93;;;;;;;29.45;24.94;93370.16;4935023;28;20042;-79
2021/04/28 09:36:31;;;;;;;11.45;5.05;;;;;;;28.64;25.74;93361.41;4927256;28;20035;-80
2021/04/28 09:39:02;;;;;;;8.32;5.93;;;;;;;28.35;26.25;93357.59;4950066;28;20030;-81
2021/04/28 09:41:45;;;;;;;8.57;5.60;;;;;;;27.58;26.88;93363.66;4953201;28;20122;-81
2021/04/28 09:44:20;;;;;;;8.98;5.43;;;;;;;27.29;27.46;93365.13;4956994;28;20078;-80
2021/04/28 09:47:14;;;;;;;12.70;5.72;;;;;;;27.01;28.48;93362.69;4952225;28;20034;-79
2021/04/28 09:49:56;;;;;;;8.85;6.47;;;;;;;26.66;28.63;93361.81;4943820;28;20039;-80
2021/04/28 09:52:40;;;;;;;9.88;5.25;;;;;;;25.50;29.59;93351.66;4948164;28;20066;-81
2021/04/28 09:55:14;;;;;;;11.15;6.57;;;;;;;25.21;29.92;93361.81;4934228;28;20617;-80
2021/04/28 09:57:46;;;;;;;15.90;7.13;;;;;;;25.20;30.73;93361.03;4941663;28;20074;-80
2021/04/28 10:00:22;;;;;;;11.38;6.60;;;;;;;25.02;31.32;93344.84;4924845;28;20778;-79
2021/04/28 10:02:51;;;;;;;13.18;6.50;;;;;;;24.94;31.70;93345.25;4940771;28;20028;-80
2021/04/28 10:05:55;;;;;;;8.93;5.68;;;;;;;25.06;31.48;93350.25;4942423;28;20062;-80
2021/04/28 10:08:23;;;;;;;9.90;5.88;;;;;;;25.17;30.94;93339.41;4923526;28;20067;-81
2021/04/28 10:10:53;;;;;;;9.77;5.20;;;;;;;24.73;31.25;93354.13;4945093;28;20146;-80
2021/04/28 10:13:22;;;;;;;8.15;6.35;;;;;;;24.62;32.39;93337.19;4933375;28;20051;-80
2021/04/28 10:15:47;;;;;;;9.68;5.95;;;;;;;24.35;31.97;93339.50;4945399;28;20051;-81
2021/04/28 10:18:14;;;;;;;8.27;6.80;;;;;;;24.69;32.24;93341.78;4952113;28;20033;-80
2021/04/28 10:20:42;;;;;;;11.13;6.40;;;;;;;24.02;32.66;93337.13;4952493;28;20533;-80
2021/04/28 10:23:14;;;;;;;6.80;5.78;;;;;;;24.17;32.14;93334.09;4951333;28;20043;-81
2021/04/28 10:25:45;;;;;;;6.60;5.65;;;;;;;24.25;32.45;93326.75;4951581;28;20050;-81
2021/04/28 10:28:11;;;;;;;7.60;5.60;;;;;;;23.78;32.94;93337.84;4951059;28;20047;-80
2021/04/28 10:30:45;;;;;;;12.63;6.35;;;;;;;23.96;32.62;93328.63;4952181;28;20620;-80
2021/04/28 10:33:33;;;;;;;9.82;5.78;;;;;;;23.90;33.09;93326.69;4951754;28;20133;-81
2021/04/28 10:35:59;;;;;;;13.27;6.13;;;;;;;23.99;32.23;93322.47;4948085;28;20629;-80
2021/04/28 10:38:26;;;;;;;13.57;6.50;;;;;;;24.02;32.91;93324.41;4950777;28;20050;-80
2021/04/28 10:40:52;;;;;;;8.15;6.03;;;;;;;23.87;32.58;93327.47;4945813;28;20043;-81
2021/04/28 10:43:18;;;;;;;12.52;6.35;;;;;;;23.61;33.30;93323.94;4944845;28;20853;-79
2021/04/28 10:45:44;;;;;;;8.50;5.55;;;;;;;23.48;33.35;93330.06;4950699;28;21404;-80
2021/04/28 10:48:15;;;;;;;13.95;5.75;;;;;;;23.67;34.01;93327.03;4953548;28;20033;-79
2021/04/28 10:50:44;;;;;;;11.32;6.15;;;;;;;23.77;33.02;93328.22;4950234;28;20035;-81
2021/04/28 10:53:15;;;;;;;10.77;6.10;;;;;;;23.72;33.16;93319.34;4948471;28;20063;-79
2021/04/28 10:56:08;;;;;;;10.57;6.10;;;;;;;23.59;32.62;93303.91;4928882;28;20310;-80
2021/04/28 10:58:36;;;;;;;15.60;6.68;;;;;;;23.08;34.12;93304.84;4948490;28;20621;-79
2021/04/28 11:01:02;;;;;;;8.65;5.85;;;;;;;22.84;34.61;93298.19;4947096;28;20081;-80
2021/04/28 11:03:31;;;;;;;10.52;6.10;;;;;;;22.85;36.02;93305.13;4949449;28;20215;-81
2021/04/28 11:06:17;;;;;;;8.70;6.13;;;;;;;22.81;34.81;93308.94;4949479;28;20046;-81
2021/04/28 11:08:46;;;;;;;10.40;6.35;;;;;;;22.79;35.23;93282.38;4946992;28;20039;-80
2021/04/28 11:11:30;;;;;;;7.50;5.90;;;;;;;23.00;34.61;93283.63;4942408;28;20042;-81
2021/04/28 11:14:11;;;;;;;9.65;5.47;;;;;;;22.83;34.48;93291.25;4947744;28;20039;-80
2021/04/28 11:16:57;;;;;;;9.05;5.63;;;;;;;22.65;34.62;93279.56;4935773;28;20065;-80
2021/04/28 11:19:37;;;;;;;9.00;5.93;;;;;;;22.83;34.21;93277.78;4946829;28;20102;-81
2021/04/28 11:22:03;;;;;;;9.68;5.93;;;;;;;22.91;34.59;93275.13;4932767;28;20384;-80
2021/04/28 11:24:53;;;;;;;9.18;5.55;;;;;;;22.60;35.38;93277.25;4945363;28;20484;-80
2021/04/28 11:27:56;;;;;;;7.90;5.43;;;;;;;22.85;34.81;93277.41;4947761;28;20027;-79
2021/04/28 11:30:26;;;;;;;8.88;5.82;;;;;;;22.73;35.01;93265.03;4945810;28;20116;-80
2021/04/28 11:33:31;;;;;;;18.00;5.70;;;;;;;23.08;34.85;93267.09;4949257;28;20031;-80
2021/04/28 11:35:56;;;;;;;7.97;5.80;;;;;;;23.24;34.91;93267.56;4948674;28;20050;-80
2021/04/28 11:38:26;;;;;;;12.48;5.32;;;;;;;22.93;34.68;93270.13;4933974;28;20046;-81